createdAt,value
2018-05-02T00:00:09.047Z,11.49
2018-05-02T00:01:09.038Z,11.46
2018-05-02T00:02:09.026Z,11.46
2018-05-02T00:03:09.014Z,11.38
2018-05-02T00:04:09.008Z,11.38
2018-05-02T00:05:08.991Z,11.31
2018-05-02T00:06:08.989Z,11.38
2018-05-02T00:07:08.969Z,11.36
2018-05-02T00:08:08.962Z,11.41
2018-05-02T00:09:08.949Z,11.39
2018-05-02T00:10:08.934Z,11.38
2018-05-02T00:11:08.926Z,11.36
2018-05-02T00:12:08.915Z,11.39
2018-05-02T00:13:08.903Z,11.39
2018-05-02T00:14:08.890Z,11.38
2018-05-02T00:15:08.879Z,11.41
2018-05-02T00:16:08.870Z,11.41
2018-05-02T00:17:08.864Z,11.39
2018-05-02T00:18:08.862Z,11.30
2018-05-02T00:19:08.832Z,11.38
2018-05-02T00:20:08.828Z,11.38
2018-05-02T00:21:08.809Z,11.23
2018-05-02T00:22:08.799Z,11.26
2018-05-02T00:23:08.789Z,11.23
2018-05-02T00:24:08.776Z,11.21
2018-05-02T00:25:08.764Z,11.21
2018-05-02T00:26:08.752Z,11.16
2018-05-02T00:27:08.747Z,11.06
2018-05-02T00:28:08.735Z,11.08
2018-05-02T00:29:08.719Z,11.05
2018-05-02T00:30:08.706Z,11.03
2018-05-02T00:31:08.769Z,10.99
2018-05-02T00:32:08.684Z,10.94
2018-05-02T00:33:08.671Z,10.84
2018-05-02T00:34:08.754Z,11.01
2018-05-02T00:35:08.651Z,10.94
2018-05-02T00:36:08.643Z,10.98
2018-05-02T00:37:08.626Z,11.03
2018-05-02T00:38:08.614Z,11.08
2018-05-02T00:39:08.607Z,11.05
2018-05-02T00:40:08.592Z,11.05
2018-05-02T00:41:08.578Z,11.06
2018-05-02T00:42:08.575Z,11.06
2018-05-02T00:43:08.554Z,11.01
2018-05-02T00:44:08.549Z,10.99
2018-05-02T00:45:08.534Z,10.99
2018-05-02T00:46:08.525Z,10.98
2018-05-02T00:47:08.509Z,10.99
2018-05-02T00:48:08.500Z,11.05
2018-05-02T00:49:08.486Z,11.02
2018-05-02T00:50:08.473Z,11.01
2018-05-02T00:51:08.462Z,11.01
2018-05-02T00:52:08.450Z,11.01
2018-05-02T00:53:08.439Z,11.11
2018-05-02T00:54:08.432Z,11.03
2018-05-02T00:55:08.417Z,11.09
2018-05-02T00:56:08.403Z,11.06
2018-05-02T00:57:08.389Z,11.09
2018-05-02T00:58:08.379Z,11.08
2018-05-02T00:59:08.371Z,11.09
2018-05-02T01:00:08.356Z,11.11
2018-05-02T01:01:08.345Z,11.13
2018-05-02T01:02:08.335Z,11.08
2018-05-02T01:03:08.322Z,11.21
2018-05-02T01:04:08.313Z,11.17
2018-05-02T01:05:08.297Z,11.20
2018-05-02T01:06:08.285Z,11.11
2018-05-02T01:07:08.278Z,11.09
2018-05-02T01:08:08.266Z,11.03
2018-05-02T01:09:08.252Z,11.05
2018-05-02T01:10:08.238Z,11.05
2018-05-02T01:11:08.229Z,10.99
2018-05-02T01:12:08.217Z,11.03
2018-05-02T01:13:08.202Z,11.08
2018-05-02T01:14:08.193Z,11.08
2018-05-02T01:15:08.183Z,11.06
2018-05-02T01:16:08.174Z,11.06
2018-05-02T01:17:08.157Z,11.05
2018-05-02T01:18:08.146Z,11.08
2018-05-02T01:19:08.134Z,11.01
2018-05-02T01:20:08.124Z,11.08
2018-05-02T01:21:08.108Z,11.12
2018-05-02T01:22:08.100Z,11.08
2018-05-02T01:23:08.087Z,11.05
2018-05-02T01:24:08.076Z,10.95
2018-05-02T01:25:08.063Z,11.01
2018-05-02T01:26:08.052Z,10.88
2018-05-02T01:27:08.042Z,10.91
2018-05-02T01:28:08.031Z,10.86
2018-05-02T01:29:08.018Z,10.69
2018-05-02T01:30:08.010Z,10.70
2018-05-02T01:31:07.993Z,10.62
2018-05-02T01:32:07.983Z,10.66
2018-05-02T01:33:07.968Z,10.69
2018-05-02T01:34:07.962Z,10.68
2018-05-02T01:35:07.946Z,10.69
2018-05-02T01:36:07.932Z,10.69
2018-05-02T01:37:07.922Z,10.60
2018-05-02T01:38:07.913Z,10.68
2018-05-02T01:39:07.900Z,10.58
2018-05-02T01:40:07.888Z,10.69
2018-05-02T01:41:07.873Z,10.58
2018-05-02T01:42:07.863Z,10.69
2018-05-02T01:43:07.849Z,10.57
2018-05-02T01:44:07.840Z,10.60
2018-05-02T01:45:07.825Z,10.58
2018-05-02T01:46:07.818Z,10.65
2018-05-02T01:47:07.806Z,10.73
2018-05-02T01:48:07.790Z,10.76
2018-05-02T01:49:07.775Z,10.80
2018-05-02T01:50:07.765Z,10.83
2018-05-02T01:51:07.755Z,10.95
2018-05-02T01:52:07.743Z,10.76
2018-05-02T01:53:07.734Z,10.65
2018-05-02T01:54:07.716Z,10.68
2018-05-02T01:55:07.703Z,10.66
2018-05-02T01:56:07.691Z,10.47
2018-05-02T01:57:07.679Z,10.55
2018-05-02T01:58:07.671Z,10.51
2018-05-02T01:59:07.655Z,10.60
2018-05-02T02:00:07.646Z,10.55
2018-05-02T02:01:07.631Z,10.57
2018-05-02T02:02:07.617Z,10.38
2018-05-02T02:03:07.608Z,10.35
2018-05-02T02:04:07.596Z,10.26
2018-05-02T02:05:07.582Z,10.31
2018-05-02T02:06:07.572Z,10.25
2018-05-02T02:07:07.558Z,10.29
2018-05-02T02:08:07.545Z,10.29
2018-05-02T02:09:07.532Z,10.39
2018-05-02T02:10:07.520Z,10.39
2018-05-02T02:11:07.510Z,10.42
2018-05-02T02:12:07.495Z,10.38
2018-05-02T02:13:07.481Z,10.36
2018-05-02T02:14:07.469Z,10.42
2018-05-02T02:15:07.457Z,10.38
2018-05-02T02:16:07.444Z,10.42
2018-05-02T02:17:07.435Z,10.36
2018-05-02T02:18:07.418Z,10.44
2018-05-02T02:19:07.411Z,10.32
2018-05-02T02:20:07.394Z,10.39
2018-05-02T02:21:07.390Z,10.36
2018-05-02T02:22:07.371Z,10.36
2018-05-02T02:23:07.357Z,10.38
2018-05-02T02:24:07.343Z,10.39
2018-05-02T02:25:07.330Z,10.57
2018-05-02T02:26:07.318Z,10.57
2018-05-02T02:27:07.306Z,10.52
2018-05-02T02:28:07.297Z,10.58
2018-05-02T02:29:07.301Z,10.55
2018-05-02T02:30:07.267Z,10.54
2018-05-02T02:31:07.260Z,10.60
2018-05-02T02:32:07.242Z,10.78
2018-05-02T02:33:07.235Z,10.81
2018-05-02T02:34:07.335Z,10.81
2018-05-02T02:35:07.205Z,10.78
2018-05-02T02:36:07.193Z,10.87
2018-05-02T02:37:07.177Z,10.88
2018-05-02T02:38:07.175Z,10.94
2018-05-02T02:39:07.156Z,10.98
2018-05-02T02:40:07.146Z,10.91
2018-05-02T02:41:07.130Z,10.86
2018-05-02T02:42:07.121Z,10.84
2018-05-02T02:43:07.105Z,10.86
2018-05-02T02:44:07.091Z,10.98
2018-05-02T02:45:07.080Z,10.91
2018-05-02T02:46:07.070Z,10.98
2018-05-02T02:47:07.061Z,11.06
2018-05-02T02:48:07.045Z,11.11
2018-05-02T02:49:07.033Z,11.02
2018-05-02T02:50:07.019Z,11.13
2018-05-02T02:51:07.008Z,11.20
2018-05-02T02:52:07.000Z,11.13
2018-05-02T02:53:06.985Z,11.20
2018-05-02T02:54:06.971Z,11.21
2018-05-02T02:55:06.961Z,11.17
2018-05-02T02:56:06.949Z,11.23
2018-05-02T02:57:06.940Z,11.31
2018-05-02T02:58:06.928Z,11.19
2018-05-02T02:59:06.913Z,11.23
2018-05-02T03:00:06.900Z,11.09
2018-05-02T03:01:06.887Z,11.27
2018-05-02T03:02:06.875Z,11.30
2018-05-02T03:03:06.867Z,11.26
2018-05-02T03:04:06.861Z,11.21
2018-05-02T03:05:06.841Z,11.27
2018-05-02T03:06:06.826Z,11.31
2018-05-02T03:07:06.818Z,11.21
2018-05-02T03:08:06.806Z,11.23
2018-05-02T03:09:06.794Z,11.27
2018-05-02T03:10:06.783Z,11.26
2018-05-02T03:11:06.770Z,11.20
2018-05-02T03:12:06.759Z,11.28
2018-05-02T03:13:06.746Z,11.35
2018-05-02T03:14:06.736Z,11.44
2018-05-02T03:15:06.732Z,11.30
2018-05-02T03:16:06.715Z,11.36
2018-05-02T03:17:06.699Z,11.31
2018-05-02T03:18:06.685Z,11.28
2018-05-02T03:19:06.676Z,11.26
2018-05-02T03:20:06.664Z,11.39
2018-05-02T03:21:06.652Z,11.38
2018-05-02T03:22:06.641Z,11.38
2018-05-02T03:23:06.627Z,11.42
2018-05-02T03:24:06.618Z,11.42
2018-05-02T03:25:06.606Z,11.53
2018-05-02T03:26:06.593Z,11.44
2018-05-02T03:27:06.598Z,11.44
2018-05-02T03:28:06.573Z,11.51
2018-05-02T03:29:06.560Z,11.41
2018-05-02T03:30:06.549Z,11.53
2018-05-02T03:31:06.540Z,11.57
2018-05-02T03:32:06.524Z,11.46
2018-05-02T03:33:06.513Z,11.49
2018-05-02T03:34:06.500Z,11.44
2018-05-02T03:35:06.493Z,11.49
2018-05-02T03:36:06.480Z,11.57
2018-05-02T03:37:06.468Z,11.53
2018-05-02T03:38:06.456Z,11.48
2018-05-02T03:39:06.446Z,11.45
2018-05-02T03:40:06.435Z,11.53
2018-05-02T03:41:06.428Z,11.41
2018-05-02T03:42:06.443Z,11.36
2018-05-02T03:43:06.400Z,11.35
2018-05-02T03:44:06.390Z,11.42
2018-05-02T03:45:06.376Z,11.42
2018-05-02T03:46:06.367Z,11.38
2018-05-02T03:47:06.354Z,11.39
2018-05-02T03:48:06.342Z,11.30
2018-05-02T03:49:06.330Z,11.33
2018-05-02T03:50:06.321Z,11.30
2018-05-02T03:51:06.312Z,11.26
2018-05-02T03:52:06.300Z,11.23
2018-05-02T03:53:06.357Z,11.23
2018-05-02T03:54:06.275Z,11.19
2018-05-02T03:55:06.263Z,11.12
2018-05-02T03:56:06.254Z,11.24
2018-05-02T03:57:06.244Z,11.17
2018-05-02T03:58:06.229Z,11.26
2018-05-02T03:59:06.218Z,11.28
2018-05-02T04:00:06.213Z,11.19
2018-05-02T04:01:06.195Z,11.24
2018-05-02T04:02:06.188Z,11.30
2018-05-02T04:03:06.180Z,11.27
2018-05-02T04:04:06.162Z,11.24
2018-05-02T04:05:06.157Z,11.26
2018-05-02T04:06:06.141Z,11.33
2018-05-02T04:07:06.127Z,11.27
2018-05-02T04:08:06.116Z,11.42
2018-05-02T04:09:06.109Z,11.38
2018-05-02T04:10:06.100Z,11.36
2018-05-02T04:11:06.090Z,11.39
2018-05-02T04:12:06.076Z,11.41
2018-05-02T04:13:06.065Z,11.41
2018-05-02T04:14:06.048Z,11.46
2018-05-02T04:15:06.042Z,11.45
2018-05-02T04:16:06.031Z,11.60
2018-05-02T04:17:06.015Z,11.60
2018-05-02T04:18:06.007Z,11.46
2018-05-02T04:19:05.995Z,11.62
2018-05-02T04:20:05.984Z,11.46
2018-05-02T04:21:05.974Z,11.46
2018-05-02T04:22:05.959Z,11.53
2018-05-02T04:23:05.949Z,11.49
2018-05-02T04:24:05.944Z,11.53
2018-05-02T04:25:05.931Z,11.46
2018-05-02T04:26:05.926Z,11.48
2018-05-02T04:27:05.903Z,11.46
2018-05-02T04:28:05.894Z,11.44
2018-05-02T04:29:05.881Z,11.46
2018-05-02T04:30:05.871Z,11.45
2018-05-02T04:31:05.861Z,11.36
2018-05-02T04:32:05.852Z,11.49
2018-05-02T04:33:05.843Z,11.35
2018-05-02T04:34:05.829Z,11.38
2018-05-02T04:35:05.818Z,11.28
2018-05-02T04:36:05.806Z,11.20
2018-05-02T04:37:05.793Z,11.31
2018-05-02T04:38:05.780Z,11.31
2018-05-02T04:39:05.771Z,11.24
2018-05-02T04:40:05.760Z,11.38
2018-05-02T04:41:05.776Z,11.31
2018-05-02T04:42:05.738Z,11.46
2018-05-02T04:43:05.724Z,11.46
2018-05-02T04:44:05.715Z,11.44
2018-05-02T04:45:05.703Z,11.44
2018-05-02T04:46:05.695Z,11.49
2018-05-02T04:47:05.681Z,11.44
2018-05-02T04:48:05.670Z,11.36
2018-05-02T04:49:05.659Z,11.31
2018-05-02T04:50:05.648Z,11.21
2018-05-02T04:51:05.635Z,11.23
2018-05-02T04:52:05.624Z,11.12
2018-05-02T04:53:05.617Z,11.13
2018-05-02T04:54:05.605Z,11.08
2018-05-02T04:55:05.594Z,11.11
2018-05-02T04:56:05.583Z,11.06
2018-05-02T04:57:05.573Z,11.20
2018-05-02T04:58:05.557Z,11.19
2018-05-02T04:59:05.547Z,11.35
2018-05-02T05:00:05.538Z,11.46
2018-05-02T05:01:05.520Z,11.49
2018-05-02T05:02:05.508Z,11.64
2018-05-02T05:03:05.498Z,11.60
2018-05-02T05:04:05.488Z,11.54
2018-05-02T05:05:05.476Z,11.33
2018-05-02T05:06:05.468Z,11.13
2018-05-02T05:07:05.453Z,11.24
2018-05-02T05:08:05.438Z,11.24
2018-05-02T05:09:05.426Z,11.21
2018-05-02T05:10:05.420Z,11.20
2018-05-02T05:11:05.405Z,11.21
2018-05-02T05:12:05.396Z,11.30
2018-05-02T05:13:05.382Z,11.35
2018-05-02T05:14:05.369Z,11.39
2018-05-02T05:15:05.358Z,11.38
2018-05-02T05:16:05.347Z,11.46
2018-05-02T05:17:05.336Z,11.49
2018-05-02T05:18:05.325Z,11.48
2018-05-02T05:19:05.316Z,11.57
2018-05-02T05:20:05.304Z,11.60
2018-05-02T05:21:05.294Z,11.60
2018-05-02T05:22:05.281Z,11.64
2018-05-02T05:23:05.269Z,11.64
2018-05-02T05:24:05.258Z,11.72
2018-05-02T05:25:05.246Z,11.75
2018-05-02T05:26:05.233Z,11.85
2018-05-02T05:27:05.223Z,11.81
2018-05-02T05:28:05.214Z,11.79
2018-05-02T05:29:05.203Z,11.77
2018-05-02T05:30:05.190Z,11.90
2018-05-02T05:31:05.178Z,11.98
2018-05-02T05:32:05.167Z,11.87
2018-05-02T05:33:05.155Z,11.97
2018-05-02T05:34:05.149Z,11.81
2018-05-02T05:35:05.132Z,11.94
2018-05-02T05:36:05.125Z,11.94
2018-05-02T05:37:05.110Z,11.97
2018-05-02T05:38:05.097Z,12.00
2018-05-02T05:39:05.088Z,12.00
2018-05-02T05:40:05.077Z,12.07
2018-05-02T05:41:05.070Z,12.13
2018-05-02T05:42:05.056Z,12.12
2018-05-02T05:43:05.044Z,12.15
2018-05-02T05:44:05.033Z,12.21
2018-05-02T05:45:05.023Z,12.11
2018-05-02T05:46:05.012Z,12.12
2018-05-02T05:47:05.001Z,12.22
2018-05-02T05:48:04.991Z,12.25
2018-05-02T05:49:04.985Z,12.21
2018-05-02T05:50:04.967Z,12.13
2018-05-02T05:51:04.961Z,12.18
2018-05-02T05:52:04.948Z,12.08
2018-05-02T05:53:04.936Z,12.21
2018-05-02T05:54:05.045Z,12.21
2018-05-02T05:55:04.919Z,12.21
2018-05-02T05:56:04.906Z,12.29
2018-05-02T05:57:04.894Z,12.40
2018-05-02T05:58:04.882Z,12.41
2018-05-02T05:59:04.871Z,12.49
2018-05-02T06:00:04.862Z,12.51
2018-05-02T06:01:04.854Z,12.52
2018-05-02T06:02:04.841Z,12.52
2018-05-02T06:03:04.832Z,12.44
2018-05-02T06:04:04.818Z,12.40
2018-05-02T06:05:04.812Z,12.40
2018-05-02T06:06:04.798Z,12.37
2018-05-02T06:07:04.789Z,12.30
2018-05-02T06:08:04.779Z,12.36
2018-05-02T06:09:04.766Z,12.49
2018-05-02T06:10:04.760Z,12.40
2018-05-02T06:11:04.747Z,12.52
2018-05-02T06:12:04.733Z,12.41
2018-05-02T06:13:04.724Z,12.54
2018-05-02T06:14:04.713Z,12.43
2018-05-02T06:15:04.705Z,12.54
2018-05-02T06:16:04.694Z,12.51
2018-05-02T06:17:04.685Z,12.51
2018-05-02T06:18:04.671Z,12.54
2018-05-02T06:19:04.661Z,12.56
2018-05-02T06:20:04.650Z,12.61
2018-05-02T06:21:04.642Z,12.55
2018-05-02T06:22:04.630Z,12.59
2018-05-02T06:23:04.621Z,12.58
2018-05-02T06:24:04.618Z,12.59
2018-05-02T06:25:04.598Z,12.62
2018-05-02T06:26:04.663Z,12.56
2018-05-02T06:27:04.578Z,12.58
2018-05-02T06:28:04.566Z,12.52
2018-05-02T06:29:04.556Z,12.63
2018-05-02T06:30:04.547Z,12.54
2018-05-02T06:31:04.534Z,12.44
2018-05-02T06:32:04.529Z,12.43
2018-05-02T06:33:04.521Z,12.40
2018-05-02T06:34:04.510Z,12.25
2018-05-02T06:35:04.496Z,12.36
2018-05-02T06:36:04.488Z,12.30
2018-05-02T06:37:04.475Z,12.19
2018-05-02T06:38:04.464Z,12.19
2018-05-02T06:39:04.455Z,12.26
2018-05-02T06:40:04.445Z,12.41
2018-05-02T06:41:04.439Z,12.33
2018-05-02T06:42:04.425Z,12.54
2018-05-02T06:43:04.413Z,12.61
2018-05-02T06:44:04.405Z,12.67
2018-05-02T06:45:04.393Z,12.74
2018-05-02T06:46:04.387Z,12.74
2018-05-02T06:47:04.375Z,12.91
2018-05-02T06:48:04.363Z,12.91
2018-05-02T06:49:04.350Z,12.95
2018-05-02T06:50:04.342Z,13.03
2018-05-02T06:51:04.333Z,13.14
2018-05-02T06:52:04.322Z,13.07
2018-05-02T06:53:04.313Z,12.85
2018-05-02T06:54:04.305Z,12.99
2018-05-02T06:55:04.293Z,13.04
2018-05-02T06:56:04.283Z,13.14
2018-05-02T06:57:04.271Z,13.10
2018-05-02T06:58:04.261Z,13.17
2018-05-02T06:59:04.255Z,13.14
2018-05-02T07:00:04.243Z,13.17
2018-05-02T07:01:04.233Z,13.35
2018-05-02T07:02:04.223Z,13.36
2018-05-02T07:03:04.216Z,13.36
2018-05-02T07:04:04.204Z,13.36
2018-05-02T07:05:04.196Z,13.07
2018-05-02T07:06:04.183Z,12.63
2018-05-02T07:07:04.183Z,12.74
2018-05-02T07:08:04.166Z,12.73
2018-05-02T07:09:04.156Z,12.76
2018-05-02T07:10:04.146Z,12.73
2018-05-02T07:11:04.136Z,12.71
2018-05-02T07:12:04.130Z,12.84
2018-05-02T07:13:04.115Z,12.88
2018-05-02T07:14:04.106Z,13.17
2018-05-02T07:15:04.102Z,13.31
2018-05-02T07:16:04.087Z,13.43
2018-05-02T07:17:04.080Z,13.47
2018-05-02T07:18:04.067Z,13.65
2018-05-02T07:19:04.056Z,13.61
2018-05-02T07:20:04.051Z,13.73
2018-05-02T07:21:04.037Z,13.75
2018-05-02T07:22:04.026Z,13.66
2018-05-02T07:23:04.018Z,13.79
2018-05-02T07:24:04.020Z,13.79
2018-05-02T07:25:03.999Z,13.84
2018-05-02T07:26:03.992Z,13.90
2018-05-02T07:27:03.987Z,14.01
2018-05-02T07:28:03.971Z,14.02
2018-05-02T07:29:03.962Z,14.05
2018-05-02T07:30:03.955Z,14.12
2018-05-02T07:31:03.942Z,14.13
2018-05-02T07:32:03.932Z,14.21
2018-05-02T07:33:04.024Z,14.21
2018-05-02T07:34:03.917Z,14.13
2018-05-02T07:35:03.907Z,14.16
2018-05-02T07:36:03.896Z,14.19
2018-05-02T07:37:03.891Z,14.21
2018-05-02T07:38:03.877Z,14.23
2018-05-02T07:39:03.869Z,14.20
2018-05-02T07:40:03.866Z,14.24
2018-05-02T07:41:03.852Z,14.23
2018-05-02T07:42:03.871Z,14.17
2018-05-02T07:43:03.834Z,14.23
2018-05-02T07:44:03.825Z,14.21
2018-05-02T07:45:03.816Z,14.31
2018-05-02T07:46:03.806Z,14.20
2018-05-02T07:47:03.799Z,14.20
2018-05-02T07:48:03.792Z,14.16
2018-05-02T07:49:03.790Z,14.09
2018-05-02T07:50:03.772Z,14.06
2018-05-02T07:51:03.762Z,14.12
2018-05-02T07:52:03.756Z,14.13
2018-05-02T07:53:03.746Z,14.12
2018-05-02T07:54:03.737Z,14.20
2018-05-02T07:55:03.746Z,14.19
2018-05-02T07:56:03.820Z,14.30
2018-05-02T07:57:03.784Z,14.42
2018-05-02T07:58:03.766Z,14.36
2018-05-02T07:59:03.695Z,14.45
2018-05-02T08:00:03.688Z,14.56
2018-05-02T08:01:03.675Z,14.53
2018-05-02T08:02:03.667Z,14.64
2018-05-02T08:03:03.659Z,14.71
2018-05-02T08:04:03.650Z,14.75
2018-05-02T08:05:03.643Z,14.72
2018-05-02T08:06:03.632Z,14.69
2018-05-02T08:07:03.623Z,14.85
2018-05-02T08:08:03.618Z,14.74
2018-05-02T08:09:03.608Z,14.75
2018-05-02T08:10:03.602Z,14.80
2018-05-02T08:11:03.594Z,14.80
2018-05-02T08:12:03.583Z,14.79
2018-05-02T08:13:03.573Z,14.91
2018-05-02T08:14:03.567Z,14.91
2018-05-02T08:15:03.557Z,15.00
2018-05-02T08:16:03.548Z,14.86
2018-05-02T08:17:03.542Z,15.03
2018-05-02T08:18:03.534Z,14.91
2018-05-02T08:19:03.527Z,15.00
2018-05-02T08:20:03.519Z,15.11
2018-05-02T08:21:03.511Z,15.09
2018-05-02T08:22:03.541Z,15.05
2018-05-02T08:23:03.501Z,15.11
2018-05-02T08:24:03.486Z,15.12
2018-05-02T08:25:03.477Z,15.12
2018-05-02T08:26:03.476Z,15.11
2018-05-02T08:27:03.461Z,15.12
2018-05-02T08:28:03.452Z,15.07
2018-05-02T08:29:03.442Z,15.13
2018-05-02T08:30:03.443Z,14.91
2018-05-02T08:31:03.434Z,14.79
2018-05-02T08:32:03.428Z,14.80
2018-05-02T08:33:03.413Z,14.61
2018-05-02T08:34:03.405Z,14.67
2018-05-02T08:35:03.398Z,14.74
2018-05-02T08:36:03.392Z,14.71
2018-05-02T08:37:03.382Z,14.83
2018-05-02T08:38:03.375Z,14.95
2018-05-02T08:39:03.370Z,15.07
2018-05-02T08:40:03.358Z,15.13
2018-05-02T08:41:03.350Z,15.23
2018-05-02T08:42:03.344Z,15.09
2018-05-02T08:43:03.378Z,15.13
2018-05-02T08:44:03.324Z,15.09
2018-05-02T08:45:03.317Z,15.13
2018-05-02T08:46:03.310Z,15.13
2018-05-02T08:47:03.306Z,15.07
2018-05-02T08:48:03.294Z,15.01
2018-05-02T08:49:03.286Z,15.01
2018-05-02T08:50:03.278Z,15.03
2018-05-02T08:51:03.267Z,15.16
2018-05-02T08:52:03.261Z,14.95
2018-05-02T08:53:03.253Z,14.94
2018-05-02T08:54:03.243Z,14.78
2018-05-02T08:55:03.236Z,14.79
2018-05-02T08:56:03.228Z,14.72
2018-05-02T08:57:03.223Z,14.86
2018-05-02T08:58:03.216Z,14.87
2018-05-02T08:59:03.208Z,15.09
2018-05-02T09:00:03.198Z,15.12
2018-05-02T09:01:03.186Z,15.27
2018-05-02T09:02:03.181Z,15.25
2018-05-02T09:03:03.174Z,15.41
2018-05-02T09:04:03.166Z,15.38
2018-05-02T09:05:03.156Z,15.38
2018-05-02T09:06:03.152Z,15.37
2018-05-02T09:07:03.139Z,15.37
2018-05-02T09:08:03.134Z,15.18
2018-05-02T09:09:03.214Z,15.11
2018-05-02T09:10:03.119Z,15.07
2018-05-02T09:11:03.109Z,15.07
2018-05-02T09:12:03.103Z,15.23
2018-05-02T09:13:03.094Z,15.41
2018-05-02T09:14:03.087Z,15.44
2018-05-02T09:15:03.079Z,15.56
2018-05-02T09:16:03.069Z,15.62
2018-05-02T09:17:03.065Z,15.62
2018-05-02T09:18:03.054Z,15.58
2018-05-02T09:19:03.050Z,15.62
2018-05-02T09:20:03.042Z,15.58
2018-05-02T09:21:03.030Z,15.52
2018-05-02T09:22:03.025Z,15.49
2018-05-02T09:23:03.017Z,15.58
2018-05-02T09:24:03.008Z,15.67
2018-05-02T09:25:03.006Z,15.89
2018-05-02T09:26:02.996Z,16.06
2018-05-02T09:27:02.988Z,16.27
2018-05-02T09:28:02.979Z,16.42
2018-05-02T09:29:02.971Z,16.41
2018-05-02T09:30:02.964Z,16.50
2018-05-02T09:31:02.956Z,16.73
2018-05-02T09:32:02.949Z,16.80
2018-05-02T09:33:02.941Z,16.80
2018-05-02T09:34:02.934Z,16.82
2018-05-02T09:35:02.930Z,16.73
2018-05-02T09:36:02.919Z,16.82
2018-05-02T09:37:02.915Z,16.65
2018-05-02T09:38:02.907Z,16.60
2018-05-02T09:39:02.901Z,16.55
2018-05-02T09:40:02.898Z,16.73
2018-05-02T09:41:02.886Z,16.69
2018-05-02T09:42:02.882Z,16.77
2018-05-02T09:43:02.875Z,16.72
2018-05-02T09:44:02.903Z,16.73
2018-05-02T09:45:02.862Z,16.72
2018-05-02T09:46:02.855Z,16.82
2018-05-02T09:47:02.844Z,16.70
2018-05-02T09:48:02.840Z,16.82
2018-05-02T09:49:02.833Z,16.69
2018-05-02T09:50:02.827Z,16.69
2018-05-02T09:51:02.822Z,16.87
2018-05-02T09:52:02.869Z,16.87
2018-05-02T09:53:02.810Z,16.78
2018-05-02T09:54:02.799Z,16.77
2018-05-02T09:55:02.795Z,16.72
2018-05-02T09:56:02.788Z,16.80
2018-05-02T09:57:02.782Z,16.70
2018-05-02T09:58:02.778Z,16.77
2018-05-02T09:59:02.768Z,16.99
2018-05-02T10:00:02.771Z,17.07
2018-05-02T10:01:02.755Z,17.09
2018-05-02T10:02:02.752Z,17.12
2018-05-02T10:03:02.743Z,17.24
2018-05-02T10:04:02.740Z,17.28
2018-05-02T10:05:02.730Z,17.27
2018-05-02T10:06:02.724Z,17.33
2018-05-02T10:07:02.718Z,17.53
2018-05-02T10:08:02.715Z,17.58
2018-05-02T10:09:02.706Z,17.73
2018-05-02T10:10:02.703Z,17.65
2018-05-02T10:11:02.693Z,17.79
2018-05-02T10:12:02.688Z,17.79
2018-05-02T10:13:02.683Z,17.84
2018-05-02T10:14:02.679Z,17.84
2018-05-02T10:15:02.673Z,17.89
2018-05-02T10:16:02.665Z,17.92
2018-05-02T10:17:02.657Z,17.89
2018-05-02T10:18:02.655Z,18.07
2018-05-02T10:19:02.645Z,18.01
2018-05-02T10:20:02.643Z,17.92
2018-05-02T10:21:02.636Z,17.96
2018-05-02T10:22:02.631Z,18.07
2018-05-02T10:23:02.622Z,17.99
2018-05-02T10:24:02.621Z,17.96
2018-05-02T10:25:02.615Z,17.92
2018-05-02T10:26:02.616Z,17.95
2018-05-02T10:27:02.603Z,17.77
2018-05-02T10:28:02.595Z,17.83
2018-05-02T10:29:02.589Z,17.79
2018-05-02T10:30:02.583Z,17.79
2018-05-02T10:31:02.584Z,17.77
2018-05-02T10:32:02.574Z,17.74
2018-05-02T10:33:02.567Z,17.89
2018-05-02T10:34:02.563Z,17.87
2018-05-02T10:35:02.558Z,17.87
2018-05-02T10:36:02.553Z,17.95
2018-05-02T10:37:02.626Z,17.99
2018-05-02T10:38:02.544Z,18.04
2018-05-02T10:39:02.539Z,18.01
2018-05-02T10:40:02.532Z,18.14
2018-05-02T10:41:02.525Z,18.11
2018-05-02T10:42:02.519Z,18.23
2018-05-02T10:43:02.518Z,18.17
2018-05-02T10:44:02.509Z,18.39
2018-05-02T10:45:02.503Z,18.49
2018-05-02T10:46:02.499Z,18.39
2018-05-02T10:47:02.494Z,18.36
2018-05-02T10:48:02.492Z,18.38
2018-05-02T10:49:02.482Z,18.39
2018-05-02T10:50:02.480Z,18.38
2018-05-02T10:51:02.472Z,18.42
2018-05-02T10:52:02.474Z,18.32
2018-05-02T10:53:02.464Z,18.09
2018-05-02T10:54:02.458Z,17.91
2018-05-02T10:55:02.453Z,17.94
2018-05-02T10:56:02.468Z,17.98
2018-05-02T10:57:02.445Z,18.07
2018-05-02T10:58:02.439Z,18.21
2018-05-02T10:59:02.434Z,18.34
2018-05-02T11:00:02.428Z,18.34
2018-05-02T11:01:02.423Z,18.51
2018-05-02T11:02:02.416Z,18.65
2018-05-02T11:03:02.413Z,18.64
2018-05-02T11:04:02.408Z,18.76
2018-05-02T11:05:02.403Z,18.87
2018-05-02T11:06:02.396Z,18.59
2018-05-02T11:07:02.397Z,18.60
2018-05-02T11:08:02.388Z,18.53
2018-05-02T11:09:02.384Z,18.50
2018-05-02T11:10:02.381Z,18.47
2018-05-02T11:11:02.375Z,18.47
2018-05-02T11:12:02.370Z,18.50
2018-05-02T11:13:02.363Z,18.41
2018-05-02T11:14:02.357Z,18.56
2018-05-02T11:15:02.357Z,18.41
2018-05-02T11:16:02.347Z,18.50
2018-05-02T11:17:02.343Z,18.47
2018-05-02T11:18:02.338Z,18.54
2018-05-02T11:19:02.339Z,18.50
2018-05-02T11:20:02.329Z,18.39
2018-05-02T11:21:02.323Z,18.47
2018-05-02T11:22:02.388Z,18.53
2018-05-02T11:23:02.314Z,18.50
2018-05-02T11:24:02.313Z,18.50
2018-05-02T11:25:02.307Z,18.60
2018-05-02T11:26:02.304Z,18.65
2018-05-02T11:27:02.298Z,18.69
2018-05-02T11:28:02.291Z,18.78
2018-05-02T11:29:02.286Z,18.82
2018-05-02T11:30:02.284Z,18.86
2018-05-02T11:31:02.277Z,18.96
2018-05-02T11:32:02.275Z,18.90
2018-05-02T11:33:02.269Z,19.05
2018-05-02T11:34:02.264Z,18.96
2018-05-02T11:35:02.261Z,19.09
2018-05-02T11:36:02.257Z,19.16
2018-05-02T11:37:02.250Z,19.13
2018-05-02T11:38:02.246Z,19.16
2018-05-02T11:39:02.241Z,19.23
2018-05-02T11:40:02.238Z,19.17
2018-05-02T11:41:02.236Z,19.30
2018-05-02T11:42:02.228Z,19.30
2018-05-02T11:43:02.226Z,19.34
2018-05-02T11:44:02.219Z,19.27
2018-05-02T11:45:02.217Z,19.20
2018-05-02T11:46:02.210Z,19.09
2018-05-02T11:47:02.205Z,19.16
2018-05-02T11:48:02.199Z,19.15
2018-05-02T11:49:02.195Z,19.28
2018-05-02T11:50:02.193Z,19.34
2018-05-02T11:51:02.188Z,19.47
2018-05-02T11:52:02.184Z,19.62
2018-05-02T11:53:02.177Z,19.82
2018-05-02T11:54:02.174Z,19.85
2018-05-02T11:55:02.171Z,19.94
2018-05-02T11:56:02.166Z,20.05
2018-05-02T11:57:02.162Z,20.02
2018-05-02T11:58:02.161Z,20.16
2018-05-02T11:59:02.155Z,20.16
2018-05-02T12:00:02.155Z,20.26
2018-05-02T12:01:02.147Z,20.31
2018-05-02T12:02:02.146Z,20.51
2018-05-02T12:03:02.137Z,20.41
2018-05-02T12:04:02.136Z,20.46
2018-05-02T12:05:02.133Z,20.48
2018-05-02T12:06:02.127Z,20.48
2018-05-02T12:07:02.129Z,20.42
2018-05-02T12:08:02.121Z,20.40
2018-05-02T12:09:02.118Z,20.42
2018-05-02T12:10:02.114Z,20.53
2018-05-02T12:11:02.113Z,20.50
2018-05-02T12:12:02.106Z,20.46
2018-05-02T12:13:02.112Z,20.46
2018-05-02T12:14:02.101Z,20.40
2018-05-02T12:15:02.098Z,20.42
2018-05-02T12:16:02.164Z,20.48
2018-05-02T12:17:02.092Z,20.51
2018-05-02T12:18:02.086Z,20.38
2018-05-02T12:19:02.083Z,20.38
2018-05-02T12:20:02.082Z,20.38
2018-05-02T12:21:02.080Z,20.31
2018-05-02T12:22:02.076Z,20.31
2018-05-02T12:23:02.068Z,20.17
2018-05-02T12:24:02.065Z,19.92
2018-05-02T12:25:02.068Z,19.78
2018-05-02T12:26:02.062Z,19.79
2018-05-02T12:27:02.058Z,19.78
2018-05-02T12:28:02.052Z,19.75
2018-05-02T12:29:02.050Z,19.85
2018-05-02T12:30:02.044Z,19.75
2018-05-02T12:31:02.042Z,19.79
2018-05-02T12:32:02.041Z,19.87
2018-05-02T12:33:02.034Z,19.65
2018-05-02T12:34:02.040Z,19.62
2018-05-02T12:35:02.030Z,19.61
2018-05-02T12:36:02.030Z,19.10
2018-05-02T12:37:02.028Z,19.15
2018-05-02T12:38:02.018Z,19.09
2018-05-02T12:39:02.013Z,19.07
2018-05-02T12:40:02.019Z,19.05
2018-05-02T12:41:02.004Z,19.13
2018-05-02T12:42:02.003Z,19.25
2018-05-02T12:43:01.999Z,19.35
2018-05-02T12:44:02.046Z,19.32
2018-05-02T12:45:01.991Z,19.32
2018-05-02T12:46:01.985Z,19.30
2018-05-02T12:47:01.986Z,19.28
2018-05-02T12:48:01.978Z,19.30
2018-05-02T12:49:01.977Z,19.27
2018-05-02T12:50:01.971Z,19.27
2018-05-02T12:51:01.967Z,19.34
2018-05-02T12:52:01.972Z,19.31